Airfield :
LOGIN :

Register | Disclaimer

   EN    FR    IT 

 










Legend :    VFR   Marginal VFR   IFR   Intensive IFR   Very Intensive IFR
Visi :
Ceiling :
>= 8 km
>= 3000ft
5 to 8 km
1000 to 3000 ft
1500m to 5 km
500 to 1000 ft
800 to 1500m
200 to 500 ft
< 800m
< 200 ft
Symbols :   Thunderstorms  Fog  Heavy snow  Heavy precipitations  Wind > 20 kt
SIGMETs :     Misc.  Thunderstorms  Icing  Turbulence  Mountain Waves  Volcanic Ashes






- Airport Elevation : 97 ft
- IATA code : EBJ


EKEB - Esbjerg

CURRENT METAR :
  • 240850Z AUTO 24006KT 7000 -DZ OVC011/// 14/13 Q1009

EXPIRED METARs :
  • 240820Z AUTO 25008KT 9000 -RA OVC015/// 14/12 Q1009
  • 240750Z AUTO 26008KT 9999 BKN021/// OVC036/// 14/11 Q1009
  • 240720Z AUTO 26010KT 9999 FEW037/// SCT052/// BKN068/// BKN086/// 14/10 Q1009
  • 240650Z AUTO 27006KT 9999 FEW022/// FEW080/// BKN089/// 13/10 Q1009
  • 240620Z AUTO 27008KT 9999 FEW027/// BKN077/// BKN120/// 13/09 Q1009

TAF TAF EKEB
Valid from the 24 at 09:00 until the 24 at 18:00 UTC


240823Z 2409/2418 26010KT 9000 BKN020
TEMPO 2409/2411 -RADZ BKN012
TEMPO 2411/2413 25015G28KT -RADZ BKN010
TEMPO 2413/2415 25016G26KT
TEMPO 2415/2418 BKN010



MET'MAP, your aeronautical weather chart ! - Copyright ORBIFLY December 2007 - Disclaimer

ORBIFLY MET'MAP TEAM :

Programming & Development : Alexandra Zaïnal
Concept & original design : Baudouin d'Aumeries
Assistance for programming : Marc-Olivier Méhu
Technical & hardware support : Manuel Goepfert

Contact : metmap@orbifly.com




SOURCES & CREDITS :

   NOAA